createdAt,value
2022-08-20T00:00:46.337Z,23.35
2022-08-20T00:03:27.473Z,21.42
2022-08-20T00:06:02.932Z,22.55
2022-08-20T00:08:30.950Z,26.88
2022-08-20T00:10:58.926Z,22.80
2022-08-20T00:13:36.470Z,18.50
2022-08-20T00:16:04.509Z,19.15
2022-08-20T00:18:31.273Z,18.02
2022-08-20T00:20:58.328Z,22.83
2022-08-20T00:23:25.618Z,25.50
2022-08-20T00:25:53.140Z,21.83
2022-08-20T00:28:20.255Z,20.88
2022-08-20T00:30:49.953Z,20.52
2022-08-20T00:33:22.937Z,27.48
2022-08-20T00:35:56.436Z,24.60
2022-08-20T00:38:24.966Z,22.83
2022-08-20T00:40:55.826Z,28.77
2022-08-20T00:43:43.283Z,23.17
2022-08-20T00:46:14.097Z,24.17
2022-08-20T00:48:43.694Z,23.35
2022-08-20T00:51:21.092Z,23.40
2022-08-20T00:53:47.969Z,16.95
2022-08-20T00:56:14.834Z,22.08
2022-08-20T00:58:45.080Z,22.77
2022-08-20T01:01:12.147Z,20.33
2022-08-20T01:03:39.746Z,17.77
2022-08-20T01:06:06.473Z,25.05
2022-08-20T01:08:32.971Z,20.90
2022-08-20T01:11:19.397Z,20.88
2022-08-20T01:13:46.899Z,18.63
2022-08-20T01:16:31.320Z,22.30
2022-08-20T01:19:00.395Z,22.65
2022-08-20T01:21:32.253Z,24.33
2022-08-20T01:24:07.637Z,17.95
2022-08-20T01:26:43.280Z,17.58
2022-08-20T01:29:17.352Z,18.83
2022-08-20T01:31:44.251Z,28.85
2022-08-20T01:34:14.815Z,19.73
2022-08-20T01:36:50.783Z,23.67
2022-08-20T01:39:34.371Z,18.58
2022-08-20T01:42:30.198Z,23.35
2022-08-20T01:44:56.934Z,19.42
2022-08-20T01:47:31.333Z,19.98
2022-08-20T01:50:18.170Z,20.15
2022-08-20T01:52:57.308Z,23.27
2022-08-20T01:55:24.591Z,21.88
2022-08-20T01:57:51.280Z,18.48
2022-08-20T02:00:22.105Z,20.83
2022-08-20T02:02:49.354Z,25.60
2022-08-20T02:05:16.217Z,22.90
2022-08-20T02:07:42.806Z,20.02
2022-08-20T02:10:11.511Z,28.00
2022-08-20T02:12:39.799Z,24.25
2022-08-20T02:15:10.348Z,18.30
2022-08-20T02:17:38.363Z,19.10
2022-08-20T02:20:12.138Z,22.27
2022-08-20T02:22:50.172Z,22.48
2022-08-20T02:25:18.046Z,20.13
2022-08-20T02:27:46.580Z,16.52
2022-08-20T02:30:27.585Z,26.80
2022-08-20T02:32:58.872Z,21.60
2022-08-20T02:35:26.196Z,24.08
2022-08-20T02:37:53.990Z,25.13
2022-08-20T02:40:27.484Z,22.48
2022-08-20T02:43:00.087Z,24.23
2022-08-20T02:45:28.046Z,20.50
2022-08-20T02:47:56.787Z,24.98
2022-08-20T02:50:25.418Z,21.48
2022-08-20T02:52:53.326Z,24.38
2022-08-20T02:55:27.564Z,18.02
2022-08-20T02:58:00.080Z,19.27
2022-08-20T03:00:28.395Z,23.48
2022-08-20T03:02:55.456Z,20.95
2022-08-20T03:05:21.949Z,22.27
2022-08-20T03:07:53.631Z,26.80
2022-08-20T03:10:33.518Z,24.17
2022-08-20T03:13:02.183Z,23.98
2022-08-20T03:15:31.390Z,26.45
2022-08-20T03:17:58.028Z,26.77
2022-08-20T03:20:25.646Z,23.75
2022-08-20T03:22:52.818Z,26.08
2022-08-20T03:25:19.789Z,23.00
2022-08-20T03:27:47.165Z,23.95
2022-08-20T03:30:20.848Z,20.65
2022-08-20T03:32:47.302Z,24.02
2022-08-20T03:35:15.704Z,24.83
2022-08-20T03:37:50.466Z,23.75
2022-08-20T03:40:23.918Z,22.05
2022-08-20T03:42:52.530Z,28.35
2022-08-20T03:45:20.676Z,22.73
2022-08-20T03:47:48.067Z,24.90
2022-08-20T03:50:23.556Z,19.63
2022-08-20T03:52:54.468Z,24.73
2022-08-20T03:55:22.658Z,22.10
2022-08-20T03:57:56.309Z,23.42
2022-08-20T04:00:27.294Z,27.33
2022-08-20T04:02:55.222Z,22.77
2022-08-20T04:05:24.833Z,22.40
2022-08-20T04:07:51.724Z,20.98
2022-08-20T04:10:20.513Z,16.88
2022-08-20T04:12:53.056Z,25.20
2022-08-20T04:15:20.994Z,19.58
2022-08-20T04:17:50.274Z,20.60
2022-08-20T04:20:23.051Z,19.25
2022-08-20T04:25:31.477Z,19.92
2022-08-20T04:28:06.044Z,19.67
2022-08-20T04:30:33.275Z,17.15
2022-08-20T04:32:59.945Z,20.77
2022-08-20T04:35:26.934Z,25.00
2022-08-20T04:38:06.541Z,21.92
2022-08-20T04:40:53.377Z,18.92
2022-08-20T04:43:22.880Z,22.30
2022-08-20T04:45:51.889Z,23.27
2022-08-20T04:48:19.995Z,18.13
2022-08-20T04:50:47.033Z,20.08
2022-08-20T04:53:17.661Z,19.80
2022-08-20T04:55:45.944Z,24.55
2022-08-20T04:58:18.061Z,23.13
2022-08-20T05:00:49.581Z,27.70
2022-08-20T05:03:17.515Z,24.33
2022-08-20T05:05:47.860Z,18.75
2022-08-20T05:08:19.716Z,21.25
2022-08-20T05:10:47.286Z,21.15
2022-08-20T05:13:13.761Z,19.65
2022-08-20T05:15:40.814Z,18.83
2022-08-20T05:18:08.599Z,24.65
2022-08-20T05:20:38.857Z,17.55
2022-08-20T05:23:06.822Z,23.05
2022-08-20T05:25:33.552Z,18.90
2022-08-20T05:28:09.346Z,17.10
2022-08-20T05:30:38.087Z,30.75
2022-08-20T05:33:06.364Z,23.45
2022-08-20T05:35:35.775Z,21.23
2022-08-20T05:38:02.469Z,17.58
2022-08-20T05:40:29.001Z,24.40
2022-08-20T05:42:55.418Z,16.40
2022-08-20T05:45:22.181Z,20.23
2022-08-20T05:47:49.468Z,23.25
2022-08-20T05:50:23.925Z,20.00
2022-08-20T05:52:50.625Z,15.02
2022-08-20T05:55:17.329Z,18.50
2022-08-20T05:57:44.936Z,18.60
2022-08-20T06:00:14.034Z,14.18
2022-08-20T06:02:59.160Z,14.82
2022-08-20T06:05:25.833Z,11.45
2022-08-20T06:07:54.858Z,11.43
2022-08-20T06:10:35.648Z,12.25
2022-08-20T06:13:02.975Z,14.90
2022-08-20T06:15:30.781Z,10.60
2022-08-20T06:17:58.431Z,14.60
2022-08-20T06:20:28.754Z,13.18
2022-08-20T06:22:56.027Z,12.18
2022-08-20T06:25:22.619Z,11.27
2022-08-20T06:27:49.226Z,12.55
2022-08-20T06:30:17.188Z,10.15
2022-08-20T06:32:43.946Z,16.25
2022-08-20T06:35:11.026Z,14.52
2022-08-20T06:37:40.260Z,9.55
2022-08-20T06:40:13.444Z,13.07
2022-08-20T06:42:45.759Z,13.85
2022-08-20T06:45:17.808Z,14.18
2022-08-20T06:47:46.041Z,14.15
2022-08-20T06:50:19.849Z,13.23
2022-08-20T06:52:52.873Z,13.65
2022-08-20T06:55:30.462Z,16.30
2022-08-20T06:58:05.669Z,13.77
2022-08-20T07:00:33.615Z,16.30
2022-08-20T07:03:02.107Z,11.40
2022-08-20T07:05:30.249Z,12.60
2022-08-20T07:07:56.733Z,12.45
2022-08-20T07:10:25.244Z,17.77
2022-08-20T07:12:52.081Z,10.68
2022-08-20T07:15:21.834Z,9.68
2022-08-20T07:18:01.531Z,9.35
2022-08-20T07:20:29.705Z,14.23
2022-08-20T07:22:56.372Z,14.10
2022-08-20T07:25:23.178Z,12.85
2022-08-20T07:27:50.223Z,10.05
2022-08-20T07:30:56.603Z,14.02
2022-08-20T07:33:25.534Z,12.85
2022-08-20T07:35:52.113Z,8.98
2022-08-20T07:38:25.513Z,10.45
2022-08-20T07:40:54.079Z,17.52
2022-08-20T07:43:24.009Z,9.15
2022-08-20T07:45:55.712Z,12.20
2022-08-20T07:48:32.280Z,9.47
2022-08-20T07:51:03.311Z,9.20
2022-08-20T07:53:35.232Z,9.48
2022-08-20T07:56:07.532Z,17.75
2022-08-20T07:58:36.489Z,8.27
2022-08-20T08:01:03.520Z,13.63
2022-08-20T08:03:37.612Z,7.10
2022-08-20T08:06:07.769Z,8.40
2022-08-20T08:08:34.376Z,11.52
2022-08-20T08:11:06.365Z,7.22
2022-08-20T08:13:38.055Z,8.27
2022-08-20T08:16:09.570Z,11.17
2022-08-20T08:18:46.529Z,9.40
2022-08-20T08:21:15.828Z,9.95
2022-08-20T08:23:44.322Z,11.07
2022-08-20T08:26:16.300Z,11.40
2022-08-20T08:28:46.537Z,9.80
2022-08-20T08:31:14.568Z,7.97
2022-08-20T08:33:41.903Z,6.90
2022-08-20T08:36:11.792Z,6.55
2022-08-20T08:38:40.426Z,12.20
2022-08-20T08:41:31.796Z,8.25
2022-08-20T08:44:10.940Z,11.15
2022-08-20T08:46:44.058Z,13.48
2022-08-20T08:49:20.176Z,13.73
2022-08-20T08:52:12.490Z,10.20
2022-08-20T08:54:47.314Z,6.85
2022-08-20T08:57:13.885Z,8.95
2022-08-20T08:59:52.376Z,9.63
2022-08-20T09:02:30.405Z,12.80
2022-08-20T09:04:59.473Z,14.73
2022-08-20T09:07:28.787Z,9.90
2022-08-20T09:09:55.529Z,8.27
2022-08-20T09:12:24.602Z,8.85
2022-08-20T09:14:51.718Z,14.88
2022-08-20T09:17:21.342Z,9.15
2022-08-20T09:19:49.169Z,9.73
2022-08-20T09:22:19.061Z,10.68
2022-08-20T09:24:45.800Z,14.30
2022-08-20T09:27:12.879Z,12.43
2022-08-20T09:29:39.875Z,11.82
2022-08-20T09:32:10.240Z,12.13
2022-08-20T09:34:42.053Z,11.13
2022-08-20T09:37:09.077Z,14.43
2022-08-20T09:39:36.582Z,13.90
2022-08-20T09:42:08.440Z,15.82
2022-08-20T09:44:35.165Z,8.40
2022-08-20T09:47:01.692Z,16.02
2022-08-20T09:49:28.329Z,10.98
2022-08-20T09:51:55.281Z,9.85
2022-08-20T09:54:22.274Z,16.98
2022-08-20T09:56:49.060Z,12.05
2022-08-20T09:59:16.098Z,8.02
2022-08-20T10:01:42.637Z,11.38
2022-08-20T10:04:09.138Z,13.50
2022-08-20T10:06:40.434Z,18.25
2022-08-20T10:09:07.457Z,15.57
2022-08-20T10:11:34.034Z,9.98
2022-08-20T10:14:00.517Z,16.35
2022-08-20T10:16:29.500Z,14.95
2022-08-20T10:18:57.030Z,13.23
2022-08-20T10:21:23.607Z,15.73
2022-08-20T10:23:50.131Z,19.13
2022-08-20T10:26:17.268Z,16.13
2022-08-20T10:28:44.133Z,17.17
2022-08-20T10:31:12.298Z,16.92
2022-08-20T10:33:40.525Z,18.05
2022-08-20T10:36:13.190Z,21.90
2022-08-20T10:38:39.793Z,13.10
2022-08-20T10:41:06.303Z,20.30
2022-08-20T10:43:33.349Z,21.40
2022-08-20T10:45:59.901Z,18.75
2022-08-20T10:48:27.247Z,21.10
2022-08-20T10:50:53.857Z,18.38
2022-08-20T10:53:20.485Z,15.98
2022-08-20T10:55:47.034Z,22.73
2022-08-20T10:58:13.523Z,16.67
2022-08-20T11:00:45.699Z,24.58
2022-08-20T11:03:12.212Z,21.30
2022-08-20T11:05:39.042Z,22.90
2022-08-20T11:08:06.103Z,24.08
2022-08-20T11:10:34.350Z,19.25
2022-08-20T11:13:03.432Z,19.00
2022-08-20T11:15:30.222Z,19.27
2022-08-20T11:17:57.099Z,20.13
2022-08-20T11:20:26.183Z,23.98
2022-08-20T11:22:54.063Z,23.55
2022-08-20T11:25:21.080Z,26.83
2022-08-20T11:27:50.682Z,22.88
2022-08-20T11:30:26.392Z,17.30
2022-08-20T11:32:53.274Z,23.48
2022-08-20T11:38:08.211Z,21.75
2022-08-20T11:40:35.159Z,19.30
2022-08-20T11:43:18.046Z,22.83
2022-08-20T11:45:47.322Z,17.85
2022-08-20T11:48:13.804Z,18.15
2022-08-20T11:50:40.420Z,21.83
2022-08-20T11:53:07.929Z,18.98
2022-08-20T11:55:35.219Z,15.93
2022-08-20T11:58:01.706Z,19.30
2022-08-20T12:00:32.137Z,15.57
2022-08-20T12:05:32.712Z,20.83
2022-08-20T12:08:02.650Z,13.45
2022-08-20T12:10:30.019Z,15.32
2022-08-20T12:12:57.081Z,17.73
2022-08-20T12:15:25.260Z,10.88
2022-08-20T12:17:51.793Z,13.20
2022-08-20T12:20:18.292Z,17.60
2022-08-20T12:22:44.918Z,11.25
2022-08-20T12:25:12.373Z,14.40
2022-08-20T12:27:40.112Z,15.32
2022-08-20T12:30:14.356Z,13.75
2022-08-20T12:32:42.247Z,16.13
2022-08-20T12:35:10.735Z,14.68
2022-08-20T12:37:37.590Z,15.80
2022-08-20T12:40:07.953Z,11.07
2022-08-20T12:42:34.523Z,10.82
2022-08-20T12:45:01.694Z,15.68
2022-08-20T12:47:31.217Z,15.13
2022-08-20T12:50:01.018Z,11.38
2022-08-20T12:52:29.653Z,9.65
2022-08-20T12:54:57.009Z,15.25
2022-08-20T12:57:29.777Z,13.75
2022-08-20T12:59:59.047Z,13.18
2022-08-20T13:02:26.277Z,13.15
2022-08-20T13:04:53.268Z,12.10
2022-08-20T13:07:20.961Z,15.15
2022-08-20T13:09:47.434Z,12.43
2022-08-20T13:12:16.648Z,18.10
2022-08-20T13:14:44.494Z,9.95
2022-08-20T13:17:10.975Z,14.90
2022-08-20T13:19:38.870Z,12.43
2022-08-20T13:22:05.999Z,11.27
2022-08-20T13:24:32.545Z,14.40
2022-08-20T13:27:27.706Z,17.98
2022-08-20T13:29:58.560Z,15.70
2022-08-20T13:32:25.374Z,15.23
2022-08-20T13:34:51.857Z,16.85
2022-08-20T13:37:25.120Z,16.77
2022-08-20T13:39:53.090Z,13.98
2022-08-20T13:42:19.868Z,14.65
2022-08-20T13:44:46.698Z,19.33
2022-08-20T13:47:18.657Z,15.10
2022-08-20T13:49:46.194Z,17.98
2022-08-20T13:52:12.753Z,15.85
2022-08-20T13:54:43.678Z,17.52
2022-08-20T13:57:14.362Z,20.88
2022-08-20T13:59:43.381Z,16.20
2022-08-20T14:02:11.376Z,15.88
2022-08-20T14:04:38.766Z,21.17
2022-08-20T14:07:31.977Z,15.95
2022-08-20T14:10:12.235Z,16.80
2022-08-20T14:12:38.799Z,16.50
2022-08-20T14:15:06.452Z,16.85
2022-08-20T14:17:35.982Z,21.65
2022-08-20T14:20:07.884Z,14.15
2022-08-20T14:25:04.905Z,16.83
2022-08-20T14:27:33.700Z,17.58
2022-08-20T14:30:01.609Z,20.38
2022-08-20T14:32:28.371Z,18.88
2022-08-20T14:34:59.022Z,17.48
2022-08-20T14:37:31.404Z,22.08
2022-08-20T14:40:00.166Z,13.80
2022-08-20T14:42:28.301Z,18.67
2022-08-20T14:44:56.653Z,17.42
2022-08-20T14:47:29.567Z,14.70
2022-08-20T14:49:58.066Z,17.25
2022-08-20T14:52:28.189Z,21.80
2022-08-20T14:54:55.363Z,11.75
2022-08-20T14:57:22.407Z,13.23
2022-08-20T14:59:52.009Z,22.50
2022-08-20T15:02:18.609Z,17.13
2022-08-20T15:04:54.175Z,15.55
2022-08-20T15:07:26.222Z,17.33
2022-08-20T15:09:54.407Z,15.63
2022-08-20T15:12:20.997Z,15.30
2022-08-20T15:14:48.034Z,19.13
2022-08-20T15:17:26.958Z,14.43
2022-08-20T15:19:54.108Z,18.75
2022-08-20T15:22:21.992Z,10.13
2022-08-20T15:24:48.608Z,12.55
2022-08-20T15:27:22.833Z,14.68
2022-08-20T15:29:50.944Z,20.02
2022-08-20T15:32:18.546Z,12.80
2022-08-20T15:34:45.513Z,15.73
2022-08-20T15:37:21.584Z,18.63
2022-08-20T15:39:50.370Z,15.35
2022-08-20T15:42:18.754Z,16.85
2022-08-20T15:44:46.178Z,11.60
2022-08-20T15:47:27.873Z,14.05
2022-08-20T15:50:01.581Z,15.50
2022-08-20T15:52:33.286Z,17.48
2022-08-20T15:55:01.625Z,16.48
2022-08-20T15:57:49.639Z,15.32
2022-08-20T16:00:22.847Z,19.00
2022-08-20T16:02:52.108Z,13.75
2022-08-20T16:05:40.427Z,16.77
2022-08-20T16:08:15.789Z,14.38
2022-08-20T16:11:19.966Z,12.55
2022-08-20T16:13:55.812Z,15.82
2022-08-20T16:16:31.424Z,17.40
2022-08-20T16:18:58.169Z,15.60
2022-08-20T16:21:36.741Z,19.08
2022-08-20T16:24:05.707Z,20.20
2022-08-20T16:26:57.967Z,15.55
2022-08-20T16:29:43.032Z,13.93
2022-08-20T16:32:17.719Z,18.13
2022-08-20T16:35:09.180Z,16.35
2022-08-20T16:37:54.426Z,14.80
2022-08-20T16:40:40.373Z,17.17
2022-08-20T16:43:10.669Z,22.85
2022-08-20T16:45:51.550Z,14.50
2022-08-20T16:48:19.018Z,16.10
2022-08-20T16:51:03.232Z,13.63
2022-08-20T16:53:32.177Z,13.68
2022-08-20T16:55:58.701Z,13.18
2022-08-20T16:58:25.854Z,15.30
2022-08-20T17:01:27.987Z,17.38
2022-08-20T17:03:54.446Z,22.93
2022-08-20T17:06:36.846Z,16.08
2022-08-20T17:09:14.347Z,14.60
2022-08-20T17:11:45.898Z,21.13
2022-08-20T17:14:15.437Z,21.55
2022-08-20T17:16:48.561Z,18.10
2022-08-20T17:19:25.343Z,18.73
2022-08-20T17:21:51.781Z,13.95
2022-08-20T17:24:30.223Z,14.93
2022-08-20T17:27:02.200Z,20.75
2022-08-20T17:29:32.162Z,12.23
2022-08-20T17:32:15.393Z,10.85
2022-08-20T17:34:48.723Z,17.13
2022-08-20T17:37:49.819Z,13.43
2022-08-20T17:40:45.870Z,10.75
2022-08-20T17:43:26.762Z,19.20
2022-08-20T17:45:54.541Z,11.60
2022-08-20T17:48:29.831Z,15.90
2022-08-20T17:50:58.001Z,17.33
2022-08-20T17:53:29.572Z,11.55
2022-08-20T17:56:04.329Z,19.10
2022-08-20T17:58:40.214Z,11.57
2022-08-20T18:01:22.056Z,13.90
2022-08-20T18:03:50.967Z,13.27
2022-08-20T18:06:19.455Z,12.38
2022-08-20T18:08:51.895Z,11.13
2022-08-20T18:11:27.205Z,16.50
2022-08-20T18:13:59.767Z,15.48
2022-08-20T18:16:31.162Z,13.90
2022-08-20T18:19:08.393Z,14.27
2022-08-20T18:22:13.153Z,13.27
2022-08-20T18:24:49.033Z,13.30
2022-08-20T18:27:20.546Z,13.38
2022-08-20T18:29:56.865Z,13.32
2022-08-20T18:32:31.787Z,12.05
2022-08-20T18:35:33.378Z,14.80
2022-08-20T18:38:28.167Z,12.07
2022-08-20T18:41:09.905Z,10.30
2022-08-20T18:43:36.868Z,9.93
2022-08-20T18:46:19.466Z,11.85
2022-08-20T18:48:55.814Z,14.38
2022-08-20T18:51:32.182Z,14.35
2022-08-20T18:53:58.741Z,10.98
2022-08-20T18:56:35.106Z,12.77
2022-08-20T18:59:24.734Z,15.18
2022-08-20T19:01:51.209Z,15.80
2022-08-20T19:04:26.355Z,14.43
2022-08-20T19:07:05.781Z,14.90
2022-08-20T19:09:48.414Z,13.10
2022-08-20T19:12:28.735Z,12.27
2022-08-20T19:15:07.181Z,13.48
2022-08-20T19:17:33.822Z,19.40
2022-08-20T19:20:08.954Z,15.85
2022-08-20T19:22:38.257Z,16.30
2022-08-20T19:25:06.194Z,14.10
2022-08-20T19:27:32.709Z,11.75
2022-08-20T19:29:59.213Z,21.20
2022-08-20T19:32:34.278Z,17.25
2022-08-20T19:35:07.212Z,17.98
2022-08-20T19:37:50.873Z,12.60
2022-08-20T19:40:29.116Z,13.55
2022-08-20T19:42:59.545Z,15.13
2022-08-20T19:45:32.243Z,13.27
2022-08-20T19:48:04.789Z,16.08
2022-08-20T19:50:52.570Z,18.27
2022-08-20T19:53:32.465Z,13.20
2022-08-20T19:56:17.980Z,12.93
2022-08-20T19:58:45.721Z,11.40
2022-08-20T20:01:20.511Z,20.75
2022-08-20T20:04:00.899Z,12.55
2022-08-20T20:06:29.045Z,11.65
2022-08-20T20:09:17.197Z,15.57
2022-08-20T20:11:51.605Z,16.33
2022-08-20T20:14:22.121Z,20.73
2022-08-20T20:16:52.365Z,14.48
2022-08-20T20:19:27.969Z,14.05
2022-08-20T20:22:23.402Z,14.88
2022-08-20T20:25:01.249Z,17.50
2022-08-20T20:27:28.973Z,15.35
2022-08-20T20:30:06.462Z,14.45
2022-08-20T20:32:33.955Z,12.60
2022-08-20T20:35:03.622Z,15.23
2022-08-20T20:37:48.755Z,15.60
2022-08-20T20:40:22.592Z,13.88
2022-08-20T20:43:06.208Z,12.95
2022-08-20T20:45:37.627Z,10.10
2022-08-20T20:48:39.476Z,14.52
2022-08-20T20:51:24.417Z,12.57
2022-08-20T20:53:54.859Z,14.45
2022-08-20T20:56:25.453Z,13.25
2022-08-20T20:58:55.538Z,13.13
2022-08-20T21:01:41.391Z,18.25
2022-08-20T21:04:09.592Z,13.85
2022-08-20T21:06:36.322Z,11.27
2022-08-20T21:09:02.946Z,14.68
2022-08-20T21:11:29.496Z,12.35
2022-08-20T21:13:55.961Z,20.48
2022-08-20T21:16:22.399Z,22.77
2022-08-20T21:18:48.899Z,35.47
2022-08-20T21:21:15.936Z,37.35
2022-08-20T21:23:42.770Z,37.30
2022-08-20T21:26:09.789Z,45.75
2022-08-20T21:28:36.231Z,45.95
2022-08-20T21:31:03.158Z,46.25
2022-08-20T21:33:29.733Z,51.03
2022-08-20T21:35:56.798Z,34.53
2022-08-20T21:38:23.577Z,30.20
2022-08-20T21:40:50.088Z,25.92
2022-08-20T21:43:16.576Z,20.70
2022-08-20T21:45:45.369Z,16.02
2022-08-20T21:48:16.873Z,15.25
2022-08-20T21:50:43.589Z,11.95
2022-08-20T21:53:11.347Z,16.50
2022-08-20T21:55:40.015Z,13.00
2022-08-20T21:58:07.777Z,18.38
2022-08-20T22:00:49.607Z,12.07
2022-08-20T22:03:16.628Z,12.75
2022-08-20T22:05:47.240Z,14.43
2022-08-20T22:08:13.777Z,14.07
2022-08-20T22:10:40.269Z,13.90
2022-08-20T22:13:07.295Z,16.10
2022-08-20T22:15:33.751Z,13.32
2022-08-20T22:18:00.334Z,18.45
2022-08-20T22:20:27.593Z,14.05
2022-08-20T22:22:54.349Z,13.80
2022-08-20T22:25:20.919Z,10.70
2022-08-20T22:27:47.381Z,15.82
2022-08-20T22:30:13.967Z,11.35
2022-08-20T22:32:51.867Z,12.30
2022-08-20T22:35:19.642Z,18.95
2022-08-20T22:37:46.330Z,14.85
2022-08-20T22:40:13.115Z,14.27
2022-08-20T22:42:39.670Z,11.02
2022-08-20T22:45:12.296Z,9.88
2022-08-20T22:47:42.724Z,9.80
2022-08-20T22:50:10.939Z,18.05
2022-08-20T22:52:39.388Z,11.88
2022-08-20T22:55:06.818Z,11.10
2022-08-20T22:57:34.288Z,12.15
2022-08-20T23:00:02.114Z,18.77
2022-08-20T23:02:28.611Z,9.35
2022-08-20T23:04:55.094Z,17.42
2022-08-20T23:07:21.778Z,11.25
2022-08-20T23:09:48.609Z,13.05
2022-08-20T23:12:15.080Z,10.88
2022-08-20T23:14:41.684Z,10.98
2022-08-20T23:17:15.186Z,12.93
2022-08-20T23:19:42.313Z,11.93
2022-08-20T23:22:09.062Z,14.38
2022-08-20T23:24:36.666Z,8.80
2022-08-20T23:27:06.299Z,13.32
2022-08-20T23:29:33.032Z,9.95
2022-08-20T23:32:00.157Z,11.63
2022-08-20T23:34:27.170Z,11.32
2022-08-20T23:36:56.241Z,8.27
2022-08-20T23:39:23.823Z,15.05
2022-08-20T23:41:50.621Z,13.85
2022-08-20T23:44:25.759Z,14.15
2022-08-20T23:46:59.966Z,13.55
2022-08-20T23:49:28.066Z,12.60
2022-08-20T23:51:54.693Z,10.40
2022-08-20T23:54:21.336Z,11.65
2022-08-20T23:56:47.819Z,11.45
2022-08-20T23:59:14.290Z,11.32
